Time;durP1;ratioP1;P1;durP2;ratioP2;P2;SDS_P1;SDS_P2;PMS_P1;PMS_P2;Temp;Humidity;BMP_temperature;BMP_pressure;BME280_temperature;BME280_humidity;BME280_pressure;Samples;Min_cycle;Max_cycle;Signal;HPM_P1;HPM_P2
2023/03/19 00:01:26;;;;;;;1.02;0.68;;;;;;;10.30;100.00;101040.25;5110870;28;20070;-36
2023/03/19 00:03:52;;;;;;;1.10;0.77;;;;;;;10.38;100.00;101050.75;5111235;28;20032;-36
2023/03/19 00:06:18;;;;;;;1.58;0.90;;;;;;;10.38;100.00;101066.97;5110390;28;20039;-36
2023/03/19 00:08:43;;;;;;;1.83;1.00;;;;;;;10.36;100.00;101060.16;5110229;28;20536;-36
2023/03/19 00:11:11;;;;;;;1.95;0.80;;;;;;;10.37;100.00;101073.44;5109932;28;20032;-36
2023/03/19 00:13:38;;;;;;;1.80;0.85;;;;;;;10.34;100.00;101073.88;5098179;28;20028;-36
2023/03/19 00:16:05;;;;;;;1.17;0.88;;;;;;;10.35;100.00;101067.44;5096522;28;20293;-36
2023/03/19 00:18:31;;;;;;;1.85;1.02;;;;;;;10.36;100.00;101066.38;5096997;28;20027;-36
2023/03/19 00:20:56;;;;;;;2.15;0.88;;;;;;;10.28;100.00;101056.69;5096652;28;20039;-36
2023/03/19 00:23:22;;;;;;;2.13;0.90;;;;;;;10.30;100.00;101053.78;5096275;28;20028;-36
2023/03/19 00:25:47;;;;;;;1.42;0.90;;;;;;;10.31;100.00;101066.22;5096881;28;20066;-36
2023/03/19 00:28:13;;;;;;;1.40;0.83;;;;;;;10.34;100.00;101071.16;5078372;28;20123;-36
2023/03/19 00:30:38;;;;;;;1.20;0.70;;;;;;;10.31;100.00;101072.47;5096033;28;20638;-36
2023/03/19 00:33:04;;;;;;;2.90;1.13;;;;;;;10.34;100.00;101070.34;5096165;28;20032;-36
2023/03/19 00:35:29;;;;;;;1.33;0.90;;;;;;;10.23;100.00;101063.78;5097047;28;20028;-36
2023/03/19 00:37:54;;;;;;;1.10;0.80;;;;;;;10.25;100.00;101078.75;5096170;28;20660;-36
2023/03/19 00:40:20;;;;;;;1.53;0.90;;;;;;;10.25;100.00;101077.94;5096303;28;20032;-36
2023/03/19 00:42:46;;;;;;;1.85;1.00;;;;;;;10.23;100.00;101080.00;5095735;28;20028;-36
2023/03/19 00:45:12;;;;;;;2.03;0.90;;;;;;;10.15;100.00;101072.16;5096010;28;20028;-36
2023/03/19 00:47:37;;;;;;;2.28;0.82;;;;;;;10.21;100.00;101076.69;5095923;28;20074;-35
2023/03/19 00:50:04;;;;;;;1.50;0.80;;;;;;;10.20;100.00;101075.03;5095922;28;20036;-36
2023/03/19 00:52:30;;;;;;;1.83;0.95;;;;;;;10.14;100.00;101065.09;5095841;28;20277;-35
2023/03/19 00:54:56;;;;;;;1.48;1.00;;;;;;;10.22;100.00;101075.63;5096626;28;20028;-36
2023/03/19 00:57:22;;;;;;;3.30;1.05;;;;;;;10.21;100.00;101068.59;5095723;28;20028;-35
2023/03/19 00:59:47;;;;;;;1.80;0.90;;;;;;;10.06;100.00;101058.13;5077794;28;20032;-36
2023/03/19 01:02:12;;;;;;;1.58;1.13;;;;;;;10.19;100.00;101076.06;5096113;28;20051;-36
2023/03/19 01:04:38;;;;;;;2.73;1.20;;;;;;;10.19;100.00;101076.91;5096171;28;20028;-36
2023/03/19 01:07:03;;;;;;;2.27;1.20;;;;;;;10.20;100.00;101075.03;5096351;28;20285;-36
2023/03/19 01:09:29;;;;;;;1.58;1.02;;;;;;;10.20;100.00;101083.13;5095530;28;20063;-36
2023/03/19 01:11:54;;;;;;;2.30;1.08;;;;;;;10.12;100.00;101072.63;5095105;28;20089;-36
2023/03/19 01:14:20;;;;;;;2.20;1.23;;;;;;;10.11;100.00;101074.50;5095683;28;20024;-36
2023/03/19 01:16:46;;;;;;;2.25;1.10;;;;;;;10.11;100.00;101079.91;5095663;28;20250;-36
2023/03/19 01:19:11;;;;;;;2.27;1.23;;;;;;;10.07;100.00;101071.41;5095599;28;20024;-36
2023/03/19 01:21:37;;;;;;;2.83;1.83;;;;;;;10.06;100.00;101058.94;5095767;28;20020;-36
2023/03/19 01:24:02;;;;;;;2.20;1.77;;;;;;;10.06;100.00;101066.25;5094828;28;20050;-35
2023/03/19 01:26:27;;;;;;;2.40;1.50;;;;;;;10.12;100.00;101072.63;5095245;28;20265;-36
2023/03/19 01:28:53;;;;;;;2.10;1.35;;;;;;;10.10;100.00;101074.69;5095639;28;20024;-36
2023/03/19 01:31:18;;;;;;;2.22;1.35;;;;;;;10.08;100.00;101077.63;5095396;28;20028;-36
2023/03/19 01:33:44;;;;;;;1.83;1.23;;;;;;;10.09;100.00;101075.75;5095559;28;20066;-36
2023/03/19 01:36:10;;;;;;;3.45;1.75;;;;;;;10.10;100.00;101075.53;5095290;28;20566;-36
2023/03/19 01:38:35;;;;;;;2.65;1.60;;;;;;;10.11;100.00;101077.22;5095189;28;20028;-36
2023/03/19 01:41:00;;;;;;;2.58;1.55;;;;;;;10.10;100.00;101072.81;5094556;28;20487;-36
2023/03/19 01:43:28;;;;;;;2.97;1.63;;;;;;;9.91;100.00;101053.06;5095150;28;20024;-36
2023/03/19 01:46:18;;;;;;;2.95;1.60;;;;;;;10.00;100.00;101065.25;5095068;28;20262;-36
2023/03/19 01:48:48;;;;;;;2.40;1.77;;;;;;;10.01;100.00;101075.00;5094798;28;20103;-36
2023/03/19 01:51:16;;;;;;;2.42;1.67;;;;;;;10.02;100.00;101075.84;5094993;28;20032;-36
2023/03/19 01:53:46;;;;;;;2.17;1.40;;;;;;;10.01;100.00;101074.19;5094614;28;20028;-36
2023/03/19 01:56:16;;;;;;;2.00;1.60;;;;;;;10.05;100.00;101068.13;5095135;28;20369;-36
2023/03/19 01:58:45;;;;;;;2.88;1.70;;;;;;;10.05;100.00;101072.66;5094309;28;20472;-36
2023/03/19 02:01:11;;;;;;;2.80;1.60;;;;;;;10.04;100.00;101076.41;5094336;28;20508;-36
2023/03/19 02:03:37;;;;;;;3.08;1.85;;;;;;;10.09;100.00;101073.88;5094497;28;20039;-37
2023/03/19 02:06:02;;;;;;;;;;;;;;;10.13;100.00;101071.56;5094830;28;20028;-37
2023/03/19 02:08:28;;;;;;;2.60;1.92;;;;;;;10.07;100.00;101076.00;5094832;28;19914;-37
2023/03/19 02:10:55;;;;;;;3.38;2.08;;;;;;;10.07;100.00;101067.88;5094353;28;20031;-37
2023/03/19 02:13:22;;;;;;;2.70;1.80;;;;;;;10.02;100.00;101063.16;5094240;28;20046;-36
2023/03/19 02:15:49;;;;;;;2.53;1.83;;;;;;;10.06;100.00;101074.34;5095094;28;20032;-37
2023/03/19 02:18:14;;;;;;;4.28;2.20;;;;;;;9.94;100.00;101038.28;5094175;28;20510;-36
2023/03/19 02:21:06;;;;;;;3.70;1.88;;;;;;;10.10;100.00;101072.81;5094386;28;20107;-36
2023/03/19 02:23:52;;;;;;;3.05;2.10;;;;;;;10.02;100.00;101056.91;5094692;28;20024;-37
2023/03/19 02:26:20;;;;;;;3.28;2.40;;;;;;;10.10;100.00;101080.94;5094098;28;20452;-36
2023/03/19 02:28:47;;;;;;;4.60;2.65;;;;;;;10.11;100.00;101079.09;5094238;28;20515;-37
2023/03/19 02:31:14;;;;;;;3.40;1.95;;;;;;;9.95;100.00;101061.53;5094013;28;20028;-37
2023/03/19 02:33:40;;;;;;;3.58;2.28;;;;;;;10.03;100.00;101080.19;5093625;28;20059;-37
2023/03/19 02:36:12;;;;;;;3.77;2.73;;;;;;;10.03;100.00;101077.47;5094354;28;20056;-36
2023/03/19 02:38:39;;;;;;;3.50;2.28;;;;;;;9.94;100.00;101068.81;5093968;28;20262;-37
2023/03/19 02:41:07;;;;;;;3.97;2.40;;;;;;;9.98;100.00;101080.84;5094184;28;20111;-36
2023/03/19 02:43:35;;;;;;;3.75;2.33;;;;;;;10.01;100.00;101077.72;5093519;28;20046;-37
2023/03/19 02:46:07;;;;;;;3.25;2.38;;;;;;;9.92;100.00;101076.34;5094433;28;20032;-37
2023/03/19 02:48:33;;;;;;;3.30;2.35;;;;;;;9.99;100.00;101082.50;5093595;28;20486;-37
2023/03/19 02:50:59;;;;;;;;;;;;;;;10.06;100.00;101091.38;5094190;28;20032;-37
2023/03/19 02:53:25;;;;;;;4.15;2.42;;;;;;;10.03;100.00;101085.59;5093400;28;19969;-37
2023/03/19 02:55:50;;;;;;;3.65;2.35;;;;;;;10.02;100.00;101083.94;5093739;28;20032;-37
2023/03/19 02:58:15;;;;;;;5.68;2.85;;;;;;;9.92;100.00;101079.03;5093625;28;20032;-36
2023/03/19 03:00:41;;;;;;;4.07;2.60;;;;;;;10.00;100.00;101091.41;5093893;28;20365;-36
2023/03/19 03:03:07;;;;;;;3.80;2.97;;;;;;;10.03;100.00;101089.09;5093608;28;20270;-36
2023/03/19 03:05:33;;;;;;;3.65;3.13;;;;;;;9.94;100.00;101082.31;5093349;28;20028;-36
2023/03/19 03:07:59;;;;;;;4.10;3.70;;;;;;;10.00;100.00;101097.69;5093634;28;20024;-36
2023/03/19 03:10:25;;;;;;;6.43;3.45;;;;;;;9.96;100.00;101095.63;5093875;28;20111;-35
2023/03/19 03:12:50;;;;;;;3.22;2.88;;;;;;;9.98;100.00;101094.34;5094324;28;20064;-35
2023/03/19 03:15:16;;;;;;;3.63;3.33;;;;;;;9.99;100.00;101097.88;5094093;28;20082;-36
2023/03/19 03:17:44;;;;;;;4.10;3.50;;;;;;;9.96;100.00;101095.63;5093472;28;20024;-36
2023/03/19 03:20:12;;;;;;;4.07;3.13;;;;;;;9.94;100.00;101092.31;5094334;28;20172;-36
2023/03/19 03:22:39;;;;;;;4.65;3.40;;;;;;;9.94;100.00;101093.13;5093484;28;20028;-36
2023/03/19 03:25:05;;;;;;;4.45;3.55;;;;;;;9.91;100.00;101088.19;5093111;28;20036;-36
2023/03/19 03:27:30;;;;;;;;;;;;;;;9.99;100.00;101095.19;5094382;28;20032;-36
2023/03/19 03:29:56;;;;;;;4.45;3.75;;;;;;;9.90;100.00;101091.91;5093636;28;19919;-36
2023/03/19 03:32:22;;;;;;;5.25;3.55;;;;;;;9.83;100.00;101080.34;5093587;28;20063;-36
2023/03/19 03:34:47;;;;;;;5.53;3.90;;;;;;;9.85;100.00;101085.53;5093330;28;20028;-36
2023/03/19 03:37:12;;;;;;;4.77;3.90;;;;;;;9.83;100.00;101091.16;5093577;28;20055;-36
2023/03/19 03:39:38;;;;;;;4.80;4.30;;;;;;;9.80;100.00;101096.97;5093007;28;20381;-36
2023/03/19 03:42:03;;;;;;;4.97;3.80;;;;;;;9.75;100.00;101083.31;5092913;28;20063;-36
2023/03/19 03:44:29;;;;;;;4.35;3.85;;;;;;;9.79;100.00;101096.16;5093858;28;20345;-36
2023/03/19 03:46:55;;;;;;;5.32;4.07;;;;;;;9.74;100.00;101095.16;5093184;28;20035;-36
2023/03/19 03:49:21;;;;;;;7.13;4.28;;;;;;;9.71;100.00;101098.28;5096959;28;20472;-36
2023/03/19 03:51:46;;;;;;;5.60;4.30;;;;;;;9.58;100.00;101083.03;5096752;28;20042;-36
2023/03/19 03:54:11;;;;;;;4.77;4.37;;;;;;;9.61;100.00;101098.78;5097581;28;20024;-36
2023/03/19 03:56:37;;;;;;;5.33;4.83;;;;;;;9.60;100.00;101107.94;5097204;28;20753;-36
2023/03/19 03:59:02;;;;;;;6.97;5.30;;;;;;;9.52;100.00;101106.34;5096809;28;20440;-36
2023/03/19 04:01:28;;;;;;;6.03;5.47;;;;;;;9.47;100.00;101108.88;5096583;28;20063;-36
2023/03/19 04:03:53;;;;;;;7.55;5.28;;;;;;;9.44;100.00;101113.84;5097105;28;20038;-36
2023/03/19 04:06:21;;;;;;;6.57;5.27;;;;;;;9.37;100.00;101108.50;5096832;28;20028;-36
2023/03/19 04:08:47;;;;;;;5.13;4.68;;;;;;;9.38;100.00;101112.03;5096637;28;20274;-36
2023/03/19 04:11:13;;;;;;;5.65;5.13;;;;;;;9.34;100.00;101113.50;5096678;28;20024;-36
2023/03/19 04:13:40;;;;;;;5.93;5.32;;;;;;;9.29;100.00;101106.06;5096303;28;20020;-36
2023/03/19 04:16:08;;;;;;;5.78;5.25;;;;;;;9.21;100.00;101098.19;5096543;28;20028;-36
2023/03/19 04:18:34;;;;;;;5.57;5.07;;;;;;;9.20;100.00;101113.56;5096473;28;20035;-36
2023/03/19 04:21:00;;;;;;;5.78;4.80;;;;;;;9.14;100.00;101117.13;5096965;28;20107;-36
2023/03/19 04:23:26;;;;;;;5.68;5.18;;;;;;;9.05;100.00;101099.53;5096454;28;20032;-36
2023/03/19 04:25:51;;;;;;;5.78;5.20;;;;;;;9.11;100.00;101114.84;5096433;28;20031;-36
2023/03/19 04:28:17;;;;;;;5.53;5.03;;;;;;;9.07;100.00;101118.19;5096345;28;20141;-36
2023/03/19 04:30:43;;;;;;;6.18;5.15;;;;;;;9.01;100.00;101111.78;5096019;28;20089;-36
2023/03/19 04:33:09;;;;;;;;;;;;;;;9.12;100.00;101121.91;5096962;28;20028;-36
2023/03/19 04:35:35;;;;;;;5.38;4.80;;;;;;;9.03;100.00;101121.34;5096212;28;19912;-36
2023/03/19 04:38:00;;;;;;;6.30;4.80;;;;;;;9.06;100.00;101122.75;5096174;28;20024;-36
2023/03/19 04:40:26;;;;;;;5.33;4.70;;;;;;;8.97;100.00;101116.78;5078585;28;20067;-35
2023/03/19 04:42:52;;;;;;;5.30;4.80;;;;;;;8.94;100.00;101125.31;5096313;28;20035;-36
2023/03/19 04:45:18;;;;;;;5.30;4.78;;;;;;;8.86;100.00;101122.00;5096301;28;20024;-35
2023/03/19 04:47:43;;;;;;;5.45;4.50;;;;;;;8.78;100.00;101117.66;5095935;28;20093;-35
2023/03/19 04:50:09;;;;;;;5.20;4.33;;;;;;;8.78;100.00;101123.06;5095653;28;20028;-35
2023/03/19 04:52:36;;;;;;;5.63;4.50;;;;;;;8.76;100.00;101117.06;5095909;28;20040;-35
2023/03/19 04:55:03;;;;;;;5.22;4.50;;;;;;;8.71;100.00;101124.97;5095830;28;20028;-36
2023/03/19 04:57:28;;;;;;;6.63;4.40;;;;;;;8.69;100.00;101132.44;5096048;28;20035;-36
2023/03/19 04:59:53;;;;;;;4.27;3.87;;;;;;;8.69;100.00;101137.84;5096217;28;20039;-35
2023/03/19 05:02:19;;;;;;;4.43;3.83;;;;;;;8.65;100.00;101131.22;5096161;28;20290;-36
2023/03/19 05:04:45;;;;;;;4.25;3.85;;;;;;;8.61;100.00;101141.59;5095663;28;20028;-35
2023/03/19 05:07:10;;;;;;;4.80;4.30;;;;;;;8.64;100.00;101135.78;5095540;28;20020;-35
2023/03/19 05:09:35;;;;;;;4.20;3.80;;;;;;;8.58;100.00;101139.28;5095568;28;20031;-35
2023/03/19 05:12:01;;;;;;;5.17;4.00;;;;;;;8.52;100.00;101148.22;5095506;28;20048;-36
2023/03/19 05:14:26;;;;;;;5.67;3.70;;;;;;;8.48;100.00;101147.00;5095791;28;20039;-35
2023/03/19 05:16:51;;;;;;;4.10;3.70;;;;;;;8.45;100.00;101150.94;5095720;28;20032;-35
2023/03/19 05:19:17;;;;;;;3.97;3.47;;;;;;;8.38;100.00;101136.63;5095942;28;20285;-35
2023/03/19 05:21:42;;;;;;;4.23;3.83;;;;;;;8.38;100.00;101152.81;5095755;28;20028;-35
2023/03/19 05:24:07;;;;;;;6.00;4.60;;;;;;;8.38;100.00;101158.19;5096130;28;20020;-35
2023/03/19 05:26:33;;;;;;;4.60;4.00;;;;;;;8.33;100.00;101157.13;5095806;28;20169;-35
2023/03/19 05:28:58;;;;;;;5.07;3.93;;;;;;;8.32;100.00;101156.31;5095162;28;20073;-35
2023/03/19 05:31:24;;;;;;;4.70;4.13;;;;;;;8.24;100.00;101167.28;5095663;28;20036;-35
2023/03/19 05:33:49;;;;;;;4.80;4.27;;;;;;;8.21;100.00;101162.34;5094820;28;20113;-35
2023/03/19 05:36:15;;;;;;;5.47;4.38;;;;;;;8.19;100.00;101164.38;5094984;28;20020;-35
2023/03/19 05:38:41;;;;;;;5.00;4.10;;;;;;;8.15;100.00;101165.84;5095114;28;20024;-35
2023/03/19 05:41:06;;;;;;;3.97;3.67;;;;;;;8.05;100.00;101157.34;5094502;28;20024;-35
2023/03/19 05:43:32;;;;;;;3.90;3.55;;;;;;;8.06;100.00;101175.19;5094690;28;20755;-36
2023/03/19 05:45:58;;;;;;;4.25;3.85;;;;;;;8.08;100.00;101171.22;5094492;28;20028;-35
2023/03/19 05:48:24;;;;;;;4.83;4.33;;;;;;;8.07;100.00;101176.84;5094634;28;20039;-36
2023/03/19 05:50:51;;;;;;;4.65;4.22;;;;;;;7.92;100.00;101156.31;5094594;28;20020;-36
2023/03/19 05:53:17;;;;;;;5.35;4.13;;;;;;;8.04;100.00;101175.38;5094895;28;20028;-36
2023/03/19 05:55:42;;;;;;;4.75;4.00;;;;;;;8.02;100.00;101174.75;5094728;28;20345;-36
2023/03/19 05:58:07;;;;;;;4.77;3.97;;;;;;;8.03;100.00;101186.34;5094825;28;20036;-36
2023/03/19 06:00:33;;;;;;;4.53;4.10;;;;;;;7.93;100.00;101179.50;5094409;28;20048;-36
2023/03/19 06:02:58;;;;;;;4.28;3.88;;;;;;;7.94;100.00;101181.16;5094288;28;20031;-36
2023/03/19 06:05:24;;;;;;;5.67;4.33;;;;;;;7.95;100.00;101182.84;5094485;28;20036;-36
2023/03/19 06:07:49;;;;;;;6.20;4.20;;;;;;;7.97;100.00;101178.06;5094419;28;20277;-36
2023/03/19 06:10:14;;;;;;;6.10;4.43;;;;;;;7.99;100.00;101194.84;5094481;28;20047;-36
2023/03/19 06:12:40;;;;;;;5.15;3.95;;;;;;;7.95;100.00;101196.31;5095132;28;20024;-36
2023/03/19 06:15:07;;;;;;;5.30;4.47;;;;;;;7.93;100.00;101192.16;5094279;28;20024;-36
2023/03/19 06:17:33;;;;;;;6.90;4.47;;;;;;;7.95;100.00;101201.69;5094195;28;20374;-36
2023/03/19 06:19:58;;;;;;;3.83;3.53;;;;;;;7.82;100.00;101190.88;5094336;28;20024;-36
2023/03/19 06:22:25;;;;;;;4.37;3.97;;;;;;;7.85;100.00;101201.22;5093830;28;20403;-36
2023/03/19 06:24:51;;;;;;;5.43;4.68;;;;;;;7.84;100.00;101206.81;5094392;28;20730;-36
2023/03/19 06:27:17;;;;;;;5.18;4.68;;;;;;;7.96;100.00;101211.41;5094042;28;20034;-36
2023/03/19 06:29:42;;;;;;;5.22;4.68;;;;;;;7.93;100.00;101213.69;5094673;28;20035;-36
2023/03/19 06:32:08;;;;;;;6.83;4.80;;;;;;;8.07;100.00;101211.84;5093996;28;20115;-36
2023/03/19 06:34:34;;;;;;;5.50;4.80;;;;;;;8.07;100.00;101220.75;5093678;28;20540;-36
2023/03/19 06:36:59;;;;;;;5.30;4.80;;;;;;;8.06;100.00;101220.97;5094192;28;20020;-36
2023/03/19 06:39:25;;;;;;;5.37;4.87;;;;;;;8.02;100.00;101214.31;5094261;28;20067;-36
2023/03/19 06:41:50;;;;;;;7.20;4.80;;;;;;;7.99;100.00;101227.16;5093727;28;20024;-36
2023/03/19 06:44:16;;;;;;;5.50;4.97;;;;;;;8.00;100.00;101223.44;5093878;28;20024;-36
2023/03/19 06:46:41;;;;;;;6.07;5.33;;;;;;;7.93;100.00;101213.69;5093850;28;20263;-36
2023/03/19 06:49:06;;;;;;;6.10;5.50;;;;;;;7.96;100.00;101221.38;5093785;28;20350;-36
2023/03/19 06:51:32;;;;;;;6.63;5.50;;;;;;;8.02;100.00;101230.50;5076261;28;20448;-36
2023/03/19 06:53:57;;;;;;;6.60;5.17;;;;;;;8.04;100.00;101234.63;5093717;28;20028;-36
2023/03/19 06:56:22;;;;;;;5.10;4.60;;;;;;;8.06;100.00;101239.81;5093775;28;20032;-36
2023/03/19 06:58:48;;;;;;;6.57;4.87;;;;;;;8.10;100.00;101243.75;5093695;28;20059;-36
2023/03/19 07:01:13;;;;;;;6.07;5.47;;;;;;;8.14;100.00;101243.13;5093786;28;20048;-36
2023/03/19 07:03:39;;;;;;;6.30;5.60;;;;;;;8.13;100.00;101240.66;5093358;28;20059;-35
2023/03/19 07:06:06;;;;;;;6.10;5.50;;;;;;;8.18;100.00;101246.25;5094172;28;20050;-35
2023/03/19 07:08:31;;;;;;;8.05;6.10;;;;;;;8.16;100.00;101230.31;5094319;28;20047;-36
2023/03/19 07:11:03;;;;;;;6.40;5.80;;;;;;;8.31;100.00;101262.44;5094379;28;20032;-37
2023/03/19 07:13:28;;;;;;;7.15;6.45;;;;;;;8.25;100.00;101237.16;5093478;28;20024;-36
2023/03/19 07:15:53;;;;;;;7.77;6.57;;;;;;;8.45;100.00;101255.22;5093477;28;20403;-36
2023/03/19 07:18:19;;;;;;;6.80;6.10;;;;;;;8.58;100.00;101265.16;5093690;28;20111;-36
2023/03/19 07:20:44;;;;;;;8.43;7.53;;;;;;;8.67;100.00;101263.91;5093330;28;20027;-36
2023/03/19 07:23:10;;;;;;;8.07;6.95;;;;;;;8.75;100.00;101267.25;5095406;28;20292;-36
2023/03/19 07:25:35;;;;;;;8.70;6.95;;;;;;;8.89;100.00;101262.66;5097245;28;20032;-36
2023/03/19 07:28:01;;;;;;;7.47;6.75;;;;;;;9.01;100.00;101269.06;5097465;28;20103;-37
2023/03/19 07:30:26;;;;;;;8.07;6.63;;;;;;;8.97;100.00;101251.63;5097726;28;20370;-37
2023/03/19 07:32:52;;;;;;;8.67;6.23;;;;;;;9.21;100.00;101281.69;5097915;28;20028;-36
2023/03/19 07:35:17;;;;;;;7.67;6.23;;;;;;;9.29;100.00;101273.38;5097981;28;20035;-36
2023/03/19 07:37:42;;;;;;;6.65;5.75;;;;;;;9.38;100.00;101282.91;5079168;28;20024;-36
2023/03/19 07:40:09;;;;;;;9.07;6.00;;;;;;;9.41;100.00;101274.34;5097046;28;20492;-36
2023/03/19 07:42:35;;;;;;;;;;;;;;;9.60;100.00;101290.72;5097889;28;20066;-36
2023/03/19 07:45:01;;;;;;;6.90;6.20;;;;;;;9.64;100.00;101275.75;5097703;28;19912;-36
2023/03/19 07:47:26;;;;;;;7.82;6.25;;;;;;;9.68;100.00;101274.28;5097132;28;20487;-36
2023/03/19 07:49:53;;;;;;;8.80;6.87;;;;;;;9.80;100.00;101286.03;5097379;28;20102;-34
2023/03/19 07:52:18;;;;;;;;;;;;;;;9.90;100.00;101291.00;5097400;28;20142;-36
2023/03/19 07:54:43;;;;;;;7.93;5.90;;;;;;;9.86;100.00;101274.41;5096677;28;19958;-35
2023/03/19 07:57:09;;;;;;;9.17;5.50;;;;;;;10.03;100.00;101291.75;5097174;28;20020;-36
2023/03/19 07:59:35;;;;;;;5.70;5.13;;;;;;;10.12;100.00;101278.00;5097156;28;20026;-36
2023/03/19 08:02:00;;;;;;;5.60;4.78;;;;;;;10.18;100.00;101287.94;5097085;28;20422;-36
2023/03/19 08:04:26;;;;;;;7.57;4.57;;;;;;;10.12;100.00;101289.63;5097065;28;20483;-36
2023/03/19 08:06:51;;;;;;;8.93;5.17;;;;;;;10.09;100.00;101287.34;5096748;28;20738;-36
2023/03/19 08:09:16;;;;;;;8.07;4.93;;;;;;;10.04;100.00;101298.81;5097533;28;20072;-37
2023/03/19 08:11:42;;;;;;;7.00;4.33;;;;;;;10.02;100.00;101300.91;5096686;28;20258;-36
2023/03/19 08:14:07;;;;;;;8.23;4.27;;;;;;;9.97;100.00;101300.72;5097217;28;20028;-36
2023/03/19 08:16:32;;;;;;;6.40;4.17;;;;;;;9.91;100.00;101306.19;5097474;28;20052;-36
2023/03/19 08:18:58;;;;;;;9.70;4.68;;;;;;;9.88;100.00;101306.59;5097331;28;20081;-36
2023/03/19 08:21:23;;;;;;;7.33;4.00;;;;;;;9.86;100.00;101305.97;5097316;28;20107;-36
2023/03/19 08:23:48;;;;;;;10.03;4.47;;;;;;;9.87;100.00;101302.25;5096946;28;20393;-36
2023/03/19 08:26:15;;;;;;;10.55;4.40;;;;;;;9.81;100.00;101293.13;5097207;28;20262;-36
2023/03/19 08:28:40;;;;;;;9.73;4.05;;;;;;;9.87;100.00;101308.47;5096841;28;20460;-37
2023/03/19 08:31:10;;;;;;;9.88;4.43;;;;;;;9.79;100.00;101306.81;5096580;28;20032;-36
2023/03/19 08:33:36;;;;;;;9.05;4.68;;;;;;;9.93;100.00;101323.00;5096071;28;20388;-36
2023/03/19 08:36:06;;;;;;;;;;;;;;;10.04;100.00;101316.91;5096751;28;20157;-35
2023/03/19 08:38:31;;;;;;;10.82;5.38;;;;;;;10.01;100.00;101320.88;5096169;28;19908;-36
2023/03/19 08:41:00;;;;;;;9.40;5.70;;;;;;;10.09;100.00;101321.66;5096350;28;20460;-37
2023/03/19 08:43:27;;;;;;;10.70;6.30;;;;;;;10.11;100.00;101314.19;5096023;28;20041;-36
2023/03/19 08:45:52;;;;;;;9.20;6.07;;;;;;;10.25;100.00;101324.72;5096849;28;20395;-36
2023/03/19 08:48:17;;;;;;;11.77;7.37;;;;;;;10.40;100.00;101329.84;5095975;28;20024;-36
2023/03/19 08:50:43;;;;;;;13.50;8.17;;;;;;;10.48;100.00;101321.44;5095767;28;20562;-36
2023/03/19 08:53:08;;;;;;;11.50;7.07;;;;;;;10.60;100.00;101331.56;5095888;28;20414;-35
2023/03/19 08:55:33;;;;;;;12.33;7.23;;;;;;;10.60;100.00;101329.69;5095813;28;20614;-35
2023/03/19 08:57:59;;;;;;;10.50;6.50;;;;;;;10.60;100.00;101334.28;5095810;28;20105;-36
2023/03/19 09:00:24;;;;;;;12.20;6.50;;;;;;;10.65;100.00;101337.16;5095429;28;20264;-35
2023/03/19 09:02:50;;;;;;;7.30;5.57;;;;;;;10.70;100.00;101337.31;5095101;28;20100;-36
2023/03/19 09:05:15;;;;;;;8.07;5.70;;;;;;;10.74;100.00;101323.13;5095824;28;20066;-36
2023/03/19 09:07:41;;;;;;;7.85;5.70;;;;;;;10.99;100.00;101344.78;5095938;28;20169;-37
2023/03/19 09:10:07;;;;;;;9.13;6.70;;;;;;;11.12;100.00;101338.41;5095711;28;20455;-36
2023/03/19 09:12:32;;;;;;;9.57;6.20;;;;;;;11.11;100.00;101353.00;5095349;28;20774;-39
2023/03/19 09:14:57;;;;;;;12.93;5.43;;;;;;;11.12;100.00;101346.53;5095389;28;20052;-35
2023/03/19 09:17:23;;;;;;;8.30;5.28;;;;;;;11.04;100.00;101354.94;5095251;28;20464;-36
2023/03/19 09:19:48;;;;;;;11.47;5.70;;;;;;;11.03;100.00;101358.69;5095325;28;20062;-36
2023/03/19 09:22:13;;;;;;;9.03;5.90;;;;;;;10.98;100.00;101359.38;5094885;28;20032;-36
2023/03/19 09:24:39;;;;;;;10.07;6.20;;;;;;;11.02;100.00;101362.44;5095000;28;20017;-36
2023/03/19 09:27:05;;;;;;;8.75;5.47;;;;;;;11.06;100.00;101360.94;5094837;28;20266;-36
2023/03/19 09:29:30;;;;;;;10.88;5.53;;;;;;;11.19;100.00;101360.84;5095650;28;20031;-36
2023/03/19 09:31:55;;;;;;;9.80;5.20;;;;;;;11.35;100.00;101367.56;5077523;28;20028;-35
2023/03/19 09:34:21;;;;;;;7.97;4.93;;;;;;;11.34;100.00;101357.78;5095065;28;20054;-36
2023/03/19 09:36:46;;;;;;;6.90;4.95;;;;;;;11.39;100.00;101360.66;5095101;28;20270;-36
2023/03/19 09:39:12;;;;;;;9.33;4.93;;;;;;;11.51;100.00;101363.44;5094986;28;20027;-36
2023/03/19 09:42:14;;;;;;;8.68;5.03;;;;;;;11.76;100.00;101376.91;5094855;28;20024;-36
2023/03/19 09:44:44;;;;;;;11.27;5.07;;;;;;;11.82;100.00;101376.06;5094759;28;20081;-36
2023/03/19 09:47:15;;;;;;;8.75;4.75;;;;;;;12.00;100.00;101381.44;5094825;28;20117;-36
2023/03/19 09:49:50;;;;;;;8.40;4.82;;;;;;;12.06;100.00;101372.44;5094819;28;20220;-36
2023/03/19 09:52:30;;;;;;;8.02;4.53;;;;;;;12.23;100.00;101390.75;5095035;28;20029;-35
2023/03/19 09:55:03;;;;;;;10.93;5.03;;;;;;;12.38;100.00;101388.47;5095234;28;20024;-36
2023/03/19 09:57:28;;;;;;;9.50;4.93;;;;;;;12.42;100.00;101375.28;5094616;28;20039;-36
2023/03/19 09:59:55;;;;;;;8.52;4.88;;;;;;;12.62;100.00;101392.09;5094526;28;20036;-36
2023/03/19 10:02:40;;;;;;;10.32;5.32;;;;;;;12.76;100.00;101388.13;5094972;28;20486;-36
2023/03/19 10:05:27;;;;;;;9.60;4.97;;;;;;;12.85;100.00;101388.63;5094530;28;20073;-36
2023/03/19 10:07:59;;;;;;;9.75;4.70;;;;;;;12.91;100.00;101386.88;5094511;28;20540;-36
2023/03/19 10:10:49;;;;;;;7.13;4.63;;;;;;;13.05;100.00;101396.44;5094725;28;20032;-35
2023/03/19 10:13:38;;;;;;;9.98;5.03;;;;;;;13.15;100.00;101391.28;5094900;28;20028;-36
2023/03/19 10:16:11;;;;;;;10.45;4.68;;;;;;;13.36;100.00;101389.88;5093353;28;20044;-36
2023/03/19 10:18:39;;;;;;;8.88;4.68;;;;;;;13.54;100.00;101378.91;5094807;28;20028;-37
2023/03/19 10:21:13;;;;;;;8.93;4.60;;;;;;;13.77;100.00;101388.09;5094393;28;20051;-36
2023/03/19 10:23:42;;;;;;;7.25;4.32;;;;;;;13.81;100.00;101392.81;5093947;28;20536;-35
2023/03/19 10:26:19;;;;;;;7.53;4.50;;;;;;;13.79;100.00;101388.69;5094178;28;20028;-36
2023/03/19 10:28:56;;;;;;;6.65;4.07;;;;;;;13.79;100.00;101394.13;5094409;28;20058;-36
2023/03/19 10:31:27;;;;;;;8.93;4.97;;;;;;;13.83;100.00;101393.41;5094043;28;20380;-36
2023/03/19 10:34:01;;;;;;;8.52;4.25;;;;;;;13.80;100.00;101393.88;5093768;28;20020;-36
2023/03/19 10:36:32;;;;;;;8.70;4.32;;;;;;;13.70;100.00;101398.25;5094033;28;20039;-36
2023/03/19 10:38:58;;;;;;;8.05;4.55;;;;;;;13.56;100.00;101401.22;5094285;28;20024;-36
2023/03/19 10:41:44;;;;;;;10.35;4.10;;;;;;;13.55;100.00;101401.47;5093850;28;20039;-36
2023/03/19 10:44:27;;;;;;;8.48;3.95;;;;;;;13.44;100.00;101403.13;5094726;28;20039;-36
2023/03/19 10:46:56;;;;;;;9.40;4.43;;;;;;;13.29;100.00;101387.28;5076498;28;20110;-36
2023/03/19 10:49:21;;;;;;;7.90;4.10;;;;;;;13.55;100.00;101406.91;5093847;28;20387;-36
2023/03/19 10:51:47;;;;;;;6.53;3.93;;;;;;;13.69;100.00;101400.16;5094114;28;20035;-36
2023/03/19 10:54:25;;;;;;;11.98;4.50;;;;;;;13.99;100.00;101410.84;5093511;28;20476;-36
2023/03/19 10:56:54;;;;;;;7.50;4.00;;;;;;;13.94;100.00;101420.81;5094398;28;20065;-36
2023/03/19 10:59:22;;;;;;;7.35;4.10;;;;;;;13.84;100.00;101410.53;5093609;28;20024;-36
2023/03/19 11:01:47;;;;;;;8.05;4.20;;;;;;;13.72;100.00;101417.88;5094334;28;20436;-36
2023/03/19 11:04:17;;;;;;;8.45;4.35;;;;;;;13.62;100.00;101422.03;5093409;28;20027;-36
2023/03/19 11:06:52;;;;;;;6.93;4.07;;;;;;;13.48;100.00;101417.91;5093652;28;20035;-36
2023/03/19 11:09:35;;;;;;;6.07;4.10;;;;;;;13.38;100.00;101417.66;5093552;28;20033;-36
2023/03/19 11:12:15;;;;;;;9.38;4.75;;;;;;;13.43;100.00;101422.38;5094363;28;20089;-36
2023/03/19 11:14:45;;;;;;;8.85;4.80;;;;;;;13.39;100.00;101419.31;5094082;28;20020;-36
2023/03/19 11:17:22;;;;;;;8.15;5.25;;;;;;;13.56;100.00;101425.66;5093517;28;20024;-36
2023/03/19 11:19:53;;;;;;;9.05;4.80;;;;;;;13.75;100.00;101423.66;5093475;28;20064;-37
2023/03/19 11:22:26;;;;;;;7.72;4.63;;;;;;;13.89;100.00;101416.91;5093684;28;20024;-37